Time;durP1;ratioP1;P1;durP2;ratioP2;P2;SDS_P1;SDS_P2;PMS_P1;PMS_P2;Temp;Humidity;BMP_temperature;BMP_pressure;BME280_temperature;BME280_humidity;BME280_pressure;Samples;Min_cycle;Max_cycle;Signal;HPM_P1;HPM_P2
2023/12/12 00:01:23;;;;;;;10.93;1.52;;;7.90;99.90;;;;;;4997084;28;20019;-76
2023/12/12 00:03:49;;;;;;;1.90;0.30;;;7.90;99.90;;;;;;4996391;28;20062;-76
2023/12/12 00:06:14;;;;;;;5.95;0.60;;;8.50;99.90;;;;;;4996801;28;20030;-76
2023/12/12 00:08:40;;;;;;;7.07;0.30;;;7.70;99.90;;;;;;4996584;28;20521;-76
2023/12/12 00:11:06;;;;;;;0.90;0.35;;;7.60;99.90;;;;;;4996269;28;20030;-76
2023/12/12 00:13:32;;;;;;;2.35;0.10;;;7.60;99.90;;;;;;4994787;28;20045;-76
2023/12/12 00:15:57;;;;;;;8.23;0.75;;;7.50;99.90;;;;;;4996772;28;20027;-76
2023/12/12 00:18:23;;;;;;;1.73;0.45;;;7.40;99.90;;;;;;4996277;28;20028;-76
2023/12/12 00:20:48;;;;;;;8.88;0.52;;;7.40;99.90;;;;;;4996915;28;20053;-76
2023/12/12 00:23:14;;;;;;;3.95;0.22;;;7.30;99.90;;;;;;5011554;28;20054;-76
2023/12/12 00:25:40;;;;;;;5.30;0.73;;;7.30;99.90;;;;;;4996416;28;20046;-76
2023/12/12 00:28:05;;;;;;;8.60;0.75;;;7.20;99.90;;;;;;4995996;28;20438;-76
2023/12/12 00:30:31;;;;;;;5.00;1.27;;;7.20;99.90;;;;;;4995699;28;20030;-76
2023/12/12 00:32:56;;;;;;;4.85;1.30;;;7.20;99.90;;;;;;4996283;28;20027;-76
2023/12/12 00:35:22;;;;;;;3.88;0.47;;;7.10;99.90;;;;;;4994781;28;20060;-76
2023/12/12 00:37:47;;;;;;;3.42;0.60;;;7.10;99.90;;;;;;4996168;28;20466;-76
2023/12/12 00:40:13;;;;;;;6.88;0.10;;;6.90;99.90;;;;;;4994880;28;20118;-76
2023/12/12 00:42:39;;;;;;;6.20;0.47;;;6.90;99.90;;;;;;4995932;28;20503;-76
2023/12/12 00:45:06;;;;;;;1.02;0.15;;;6.80;99.90;;;;;;4996394;28;20129;-75
2023/12/12 00:47:31;;;;;;;7.20;0.15;;;6.70;99.90;;;;;;4995859;28;20069;-76
2023/12/12 00:49:57;;;;;;;6.50;0.30;;;6.70;99.90;;;;;;4996149;28;20026;-76
2023/12/12 00:52:23;;;;;;;5.47;0.28;;;6.60;99.90;;;;;;5010688;28;20026;-76
2023/12/12 00:54:49;;;;;;;2.88;0.47;;;6.60;99.90;;;;;;4996000;28;20022;-76
2023/12/12 00:57:14;;;;;;;10.43;0.40;;;6.50;99.90;;;;;;4995426;28;20080;-76
2023/12/12 00:59:40;;;;;;;3.55;0.00;;;6.60;99.90;;;;;;4993750;28;20437;-76
2023/12/12 01:02:06;;;;;;;19.85;0.88;;;6.50;99.90;;;;;;4995363;28;20541;-76
2023/12/12 01:04:35;;;;;;;4.32;0.10;;;6.40;99.90;;;;;;4995509;28;20041;-77
2023/12/12 01:07:03;;;;;;;4.22;0.35;;;6.40;99.90;;;;;;4995306;28;20034;-77
2023/12/12 01:09:29;;;;;;;2.88;0.22;;;6.40;99.90;;;;;;4995150;28;20023;-76
2023/12/12 01:11:54;;;;;;;4.55;0.00;;;6.40;99.90;;;;;;4993827;28;20069;-77
2023/12/12 01:14:20;;;;;;;4.10;0.82;;;6.40;99.90;;;;;;4995208;28;20030;-77
2023/12/12 01:16:45;;;;;;;6.13;0.10;;;6.40;99.90;;;;;;4995587;28;20022;-77
2023/12/12 01:19:11;;;;;;;2.30;0.38;;;6.30;99.90;;;;;;4995089;28;20023;-77
2023/12/12 01:21:37;;;;;;;1.90;0.00;;;6.30;99.90;;;;;;4993806;28;20041;-77
2023/12/12 01:24:02;;;;;;;3.42;0.30;;;6.30;99.90;;;;;;4994912;28;20149;-77
2023/12/12 01:26:28;;;;;;;0.43;0.00;;;6.30;99.90;;;;;;4994948;28;20026;-77
2023/12/12 01:28:54;;;;;;;4.57;0.20;;;6.20;99.90;;;;;;4994755;28;20015;-77
2023/12/12 01:31:20;;;;;;;4.40;0.30;;;6.20;99.90;;;;;;4993400;28;20037;-77
2023/12/12 01:33:47;;;;;;;6.85;0.10;;;6.20;99.90;;;;;;4995464;28;20101;-77
2023/12/12 01:36:12;;;;;;;3.85;0.10;;;6.20;99.90;;;;;;4995018;28;20026;-77
2023/12/12 01:38:38;;;;;;;0.55;0.10;;;6.20;99.90;;;;;;4994756;28;20133;-77
2023/12/12 01:41:04;;;;;;;4.82;0.80;;;6.10;99.90;;;;;;4994500;28;20076;-77
2023/12/12 01:43:31;;;;;;;3.78;0.08;;;6.10;99.90;;;;;;4993326;28;20022;-76
2023/12/12 01:45:59;;;;;;;4.85;0.75;;;6.10;99.90;;;;;;4994909;28;20034;-75
2023/12/12 01:48:26;;;;;;;4.40;0.80;;;6.10;99.90;;;;;;4993410;28;20068;-75
2023/12/12 01:50:52;;;;;;;4.88;0.05;;;6.20;99.90;;;;;;4993050;28;20486;-75
2023/12/12 01:53:20;;;;;;;3.08;0.20;;;6.00;99.90;;;;;;4993452;28;20046;-76
2023/12/12 01:55:49;;;;;;;2.42;0.10;;;6.00;99.90;;;;;;4995160;28;20023;-76
2023/12/12 01:58:15;;;;;;;5.50;0.43;;;6.00;99.90;;;;;;4993411;28;20027;-76
2023/12/12 02:00:41;;;;;;;3.42;0.28;;;5.90;99.90;;;;;;4993209;28;20082;-76
2023/12/12 02:03:07;;;;;;;2.38;0.05;;;5.90;99.90;;;;;;4994156;28;20030;-76
2023/12/12 02:05:35;;;;;;;3.13;0.28;;;5.80;99.90;;;;;;5009737;28;20162;-76
2023/12/12 02:08:01;;;;;;;1.88;0.52;;;5.80;99.90;;;;;;4994844;28;20096;-76
2023/12/12 02:10:30;;;;;;;5.88;0.15;;;5.70;99.90;;;;;;4994602;28;20026;-75
2023/12/12 02:12:55;;;;;;;4.57;0.00;;;5.60;99.90;;;;;;4994550;28;20363;-76
2023/12/12 02:15:21;;;;;;;6.50;0.10;;;5.70;99.90;;;;;;4994498;28;20015;-76
2023/12/12 02:17:47;;;;;;;2.95;0.10;;;5.70;99.90;;;;;;4994208;28;20449;-76
2023/12/12 02:20:12;;;;;;;4.68;0.50;;;5.60;99.90;;;;;;4992853;28;20022;-76
2023/12/12 02:22:38;;;;;;;1.17;0.05;;;5.60;99.90;;;;;;4994295;28;20473;-76
2023/12/12 02:25:05;;;;;;;6.55;0.15;;;5.50;99.90;;;;;;5009290;28;20034;-76
2023/12/12 02:27:30;;;;;;;7.50;0.10;;;5.50;99.90;;;;;;4993393;28;20192;-76
2023/12/12 02:29:56;;;;;;;2.63;0.00;;;5.40;99.90;;;;;;4994567;28;20505;-76
2023/12/12 02:32:21;;;;;;;2.65;0.15;;;5.30;99.90;;;;;;4994187;28;20022;-75
2023/12/12 02:34:47;;;;;;;2.03;0.47;;;5.30;99.90;;;;;;4994120;28;20035;-75
2023/12/12 02:37:13;;;;;;;3.38;0.35;;;5.30;99.90;;;;;;4995269;28;20072;-75
2023/12/12 02:39:38;;;;;;;4.63;0.60;;;5.30;99.90;;;;;;4996646;28;20113;-76
2023/12/12 02:42:04;;;;;;;2.45;0.38;;;5.20;99.90;;;;;;4996960;28;20116;-76
2023/12/12 02:44:30;;;;;;;6.35;0.43;;;5.30;99.90;;;;;;4996772;28;20032;-76
2023/12/12 02:46:55;;;;;;;5.95;1.27;;;5.30;99.90;;;;;;4996791;28;20429;-76
2023/12/12 02:49:21;;;;;;;4.72;0.50;;;5.40;99.90;;;;;;4997735;28;20037;-76
2023/12/12 02:51:46;;;;;;;8.45;0.93;;;5.50;99.90;;;;;;4996544;28;20050;-76
2023/12/12 02:54:14;;;;;;;7.30;1.55;;;5.70;99.90;;;;;;4997604;28;20090;-76
2023/12/12 02:56:40;;;;;;;10.77;1.20;;;5.70;99.90;;;;;;4996485;28;20057;-76
2023/12/12 02:59:06;;;;;;;4.72;1.13;;;5.80;99.90;;;;;;4996169;28;20109;-76
2023/12/12 03:01:31;;;;;;;7.57;1.90;;;5.80;99.90;;;;;;4997512;28;20061;-76
2023/12/12 03:03:57;;;;;;;8.38;2.05;;;5.90;99.90;;;;;;4995932;28;20030;-76
2023/12/12 03:06:22;;;;;;;5.00;1.08;;;6.00;99.90;;;;;;5012512;28;20026;-76
2023/12/12 03:08:48;;;;;;;8.70;1.40;;;6.00;99.90;;;;;;5012685;28;20077;-76
2023/12/12 03:11:14;;;;;;;9.70;2.10;;;6.10;99.90;;;;;;4997101;28;20433;-76
2023/12/12 03:13:39;;;;;;;13.52;2.75;;;6.10;99.90;;;;;;4996216;28;20030;-76
2023/12/12 03:16:05;;;;;;;10.93;1.90;;;6.10;99.90;;;;;;4997280;28;20022;-76
2023/12/12 03:18:31;;;;;;;10.88;2.00;;;;;;;;;;4997184;28;20030;-76
2023/12/12 03:20:56;;;;;;;12.30;2.42;;;6.10;99.90;;;;;;4996166;28;20076;-76
2023/12/12 03:23:22;;;;;;;9.45;2.03;;;6.90;99.90;;;;;;4997533;28;20030;-76
2023/12/12 03:25:48;;;;;;;5.65;1.25;;;6.10;99.90;;;;;;4996948;28;20037;-76
2023/12/12 03:28:13;;;;;;;8.57;2.15;;;6.10;99.90;;;;;;4995940;28;20022;-76
2023/12/12 03:30:39;;;;;;;11.50;2.50;;;6.10;99.90;;;;;;4997598;28;20030;-76
2023/12/12 03:33:06;;;;;;;8.25;2.13;;;6.40;99.90;;;;;;5012049;28;20015;-76
2023/12/12 03:35:31;;;;;;;9.40;2.30;;;6.00;99.90;;;;;;4997081;28;20363;-76
2023/12/12 03:37:57;;;;;;;10.75;2.22;;;5.90;99.90;;;;;;4995588;28;20146;-76
2023/12/12 03:40:22;;;;;;;5.10;1.52;;;5.90;99.90;;;;;;4996919;28;20390;-76
2023/12/12 03:42:48;;;;;;;7.93;2.42;;;6.30;99.90;;;;;;4995767;28;20030;-76
2023/12/12 03:45:13;;;;;;;5.63;2.05;;;5.80;99.90;;;;;;4995629;28;20544;-76
2023/12/12 03:47:39;;;;;;;8.52;2.13;;;5.80;99.90;;;;;;4996873;28;20510;-76
2023/12/12 03:50:06;;;;;;;9.55;2.42;;;5.80;99.90;;;;;;4995619;28;20026;-76
2023/12/12 03:52:32;;;;;;;12.80;2.60;;;5.80;99.90;;;;;;4996504;28;20034;-76
2023/12/12 03:54:57;;;;;;;5.72;2.35;;;5.80;99.90;;;;;;4996558;28;20029;-76
2023/12/12 03:57:23;;;;;;;12.25;2.85;;;5.90;99.90;;;;;;4996511;28;20022;-76
2023/12/12 03:59:48;;;;;;;14.10;3.03;;;5.90;99.90;;;;;;4995148;28;20023;-76
2023/12/12 04:02:14;;;;;;;13.38;2.80;;;5.90;99.90;;;;;;4996464;28;20478;-76
2023/12/12 04:04:39;;;;;;;12.13;3.15;;;5.90;99.90;;;;;;4996472;28;20022;-77
2023/12/12 04:07:05;;;;;;;8.75;2.75;;;5.90;99.90;;;;;;5010958;28;20061;-77
2023/12/12 04:09:31;;;;;;;16.27;2.97;;;5.90;99.90;;;;;;4996207;28;20058;-77
2023/12/12 04:11:56;;;;;;;7.35;2.85;;;5.90;99.90;;;;;;4994604;28;20042;-77
2023/12/12 04:14:22;;;;;;;8.40;3.15;;;5.90;99.90;;;;;;4996115;28;20025;-77
2023/12/12 04:16:47;;;;;;;13.70;3.20;;;5.80;99.90;;;;;;4995971;28;20018;-76
2023/12/12 04:19:13;;;;;;;10.85;3.70;;;5.80;99.90;;;;;;4996210;28;20105;-76
2023/12/12 04:21:42;;;;;;;9.18;3.22;;;5.80;99.90;;;;;;4994827;28;20029;-76
2023/12/12 04:24:08;;;;;;;11.82;3.83;;;5.80;99.90;;;;;;4994890;28;20620;-75
2023/12/12 04:26:34;;;;;;;10.52;3.35;;;5.70;99.90;;;;;;5011183;28;20061;-75
2023/12/12 04:28:59;;;;;;;9.60;3.50;;;5.60;99.90;;;;;;4994583;28;20077;-75
2023/12/12 04:31:25;;;;;;;16.23;3.70;;;5.60;99.90;;;;;;4995790;28;20023;-75
2023/12/12 04:33:51;;;;;;;22.70;4.45;;;5.60;99.90;;;;;;4995620;28;20461;-75
2023/12/12 04:36:16;;;;;;;16.17;4.50;;;5.50;99.90;;;;;;4995618;28;20033;-75
2023/12/12 04:38:42;;;;;;;14.25;5.45;;;6.70;99.90;;;;;;4994710;28;20026;-75
2023/12/12 04:41:08;;;;;;;10.25;4.20;;;5.50;99.90;;;;;;4995752;28;20023;-75
2023/12/12 04:43:35;;;;;;;12.55;4.53;;;5.40;99.90;;;;;;4995705;28;20030;-76
2023/12/12 04:46:00;;;;;;;13.50;5.70;;;5.40;99.90;;;;;;5010179;28;20038;-75
2023/12/12 04:48:26;;;;;;;13.25;5.00;;;5.40;99.90;;;;;;4995714;28;20084;-76
2023/12/12 04:50:52;;;;;;;22.45;6.07;;;5.40;99.90;;;;;;4995531;28;20026;-76
2023/12/12 04:53:18;;;;;;;14.70;4.50;;;5.40;99.90;;;;;;4995715;28;20022;-76
2023/12/12 04:55:44;;;;;;;11.88;4.22;;;5.40;99.90;;;;;;4995805;28;20026;-76
2023/12/12 04:58:09;;;;;;;16.70;5.75;;;5.40;99.90;;;;;;4995801;28;20386;-74
2023/12/12 05:00:35;;;;;;;11.98;4.45;;;5.40;99.90;;;;;;4995018;28;20037;-74
2023/12/12 05:03:00;;;;;;;13.57;4.88;;;5.30;99.90;;;;;;4995214;28;20030;-74
2023/12/12 05:05:26;;;;;;;21.10;6.95;;;5.30;99.90;;;;;;4995454;28;20021;-74
2023/12/12 05:07:52;;;;;;;13.27;5.05;;;7.20;99.90;;;;;;4995805;28;20077;-74
2023/12/12 05:10:17;;;;;;;16.67;5.35;;;5.20;99.90;;;;;;5009909;28;20466;-74
2023/12/12 05:12:43;;;;;;;18.02;6.00;;;5.20;99.90;;;;;;5010054;28;20029;-75
2023/12/12 05:15:09;;;;;;;15.20;4.50;;;5.20;99.90;;;;;;4993775;28;20014;-74
2023/12/12 05:17:35;;;;;;;11.27;4.28;;;5.10;99.90;;;;;;4995218;28;20026;-75
2023/12/12 05:20:02;;;;;;;21.05;5.28;;;5.10;99.90;;;;;;4993885;28;20031;-74
2023/12/12 05:22:28;;;;;;;14.48;5.88;;;5.10;99.90;;;;;;4995229;28;20026;-74
2023/12/12 05:24:54;;;;;;;16.15;6.57;;;5.10;99.90;;;;;;4993948;28;20398;-74
2023/12/12 05:27:20;;;;;;;20.48;5.43;;;5.10;99.90;;;;;;4995583;28;20029;-75
2023/12/12 05:29:49;;;;;;;19.15;5.15;;;5.10;99.90;;;;;;4993795;28;20033;-74
2023/12/12 05:32:14;;;;;;;16.42;5.85;;;4.90;99.90;;;;;;5009730;28;20441;-75
2023/12/12 05:34:40;;;;;;;20.20;6.65;;;5.20;99.90;;;;;;4995432;28;20023;-74
2023/12/12 05:37:08;;;;;;;17.55;4.70;;;5.20;99.90;;;;;;4995309;28;20038;-74
2023/12/12 05:39:33;;;;;;;13.02;5.18;;;5.20;99.90;;;;;;4994827;28;20480;-74
2023/12/12 05:41:59;;;;;;;20.00;6.35;;;5.30;99.90;;;;;;4994624;28;20054;-74
2023/12/12 05:44:24;;;;;;;14.10;5.50;;;5.30;99.90;;;;;;4993641;28;20113;-74
2023/12/12 05:46:50;;;;;;;21.90;6.10;;;5.30;99.90;;;;;;4994690;28;20116;-74
2023/12/12 05:49:16;;;;;;;15.68;5.63;;;5.30;99.90;;;;;;4995236;28;20517;-74
2023/12/12 05:51:42;;;;;;;17.67;6.25;;;5.40;99.90;;;;;;4994656;28;20431;-74
2023/12/12 05:54:11;;;;;;;27.13;6.85;;;5.50;99.90;;;;;;4995543;28;20077;-74
2023/12/12 05:56:38;;;;;;;21.30;6.05;;;5.50;99.90;;;;;;4994901;28;20045;-74
2023/12/12 05:59:04;;;;;;;18.67;5.88;;;5.60;99.90;;;;;;4994955;28;20050;-74
2023/12/12 06:01:30;;;;;;;23.20;5.18;;;5.60;99.90;;;;;;4994445;28;20026;-75
2023/12/12 06:03:55;;;;;;;17.75;5.32;;;5.70;99.90;;;;;;4994520;28;20038;-74
2023/12/12 06:06:21;;;;;;;24.17;6.93;;;5.70;99.90;;;;;;4994707;28;20094;-74
2023/12/12 06:08:47;;;;;;;24.23;6.93;;;6.00;99.90;;;;;;4994617;28;20500;-74
2023/12/12 06:11:12;;;;;;;32.72;7.15;;;5.70;99.90;;;;;;4993284;28;20030;-75
2023/12/12 06:13:38;;;;;;;30.77;8.27;;;5.80;99.90;;;;;;4997554;28;20037;-74
2023/12/12 06:16:04;;;;;;;25.08;6.15;;;5.80;99.90;;;;;;4996854;28;20027;-74
2023/12/12 06:18:29;;;;;;;29.40;7.35;;;5.80;99.90;;;;;;4998788;28;20026;-74
2023/12/12 06:20:55;;;;;;;33.72;8.27;;;5.90;99.90;;;;;;4998029;28;20023;-74
2023/12/12 06:23:20;;;;;;;28.42;8.25;;;5.90;99.90;;;;;;4996878;28;20036;-74
2023/12/12 06:25:47;;;;;;;29.23;8.13;;;5.90;99.90;;;;;;4996771;28;20034;-74
2023/12/12 06:28:12;;;;;;;40.00;8.35;;;5.90;99.90;;;;;;4996845;28;20073;-75
2023/12/12 06:30:38;;;;;;;26.10;8.98;;;5.90;99.90;;;;;;4997417;28;20034;-75
2023/12/12 06:33:04;;;;;;;28.88;7.82;;;5.90;99.90;;;;;;4998418;28;20351;-75
2023/12/12 06:35:30;;;;;;;34.10;8.65;;;5.90;99.90;;;;;;4998727;28;20041;-75
2023/12/12 06:37:56;;;;;;;30.58;7.95;;;5.90;99.90;;;;;;4998119;28;20034;-75
2023/12/12 06:40:21;;;;;;;30.25;7.43;;;5.90;99.90;;;;;;4997755;28;20019;-75
2023/12/12 06:42:47;;;;;;;22.73;8.07;;;5.90;99.90;;;;;;4997814;28;20023;-75
2023/12/12 06:45:15;;;;;;;28.95;8.38;;;6.00;99.90;;;;;;4996483;28;20053;-75
2023/12/12 06:47:41;;;;;;;34.10;8.07;;;6.00;99.90;;;;;;4997911;28;20034;-75
2023/12/12 06:50:07;;;;;;;31.48;7.80;;;6.00;99.90;;;;;;4997967;28;20018;-76
2023/12/12 06:52:34;;;;;;;23.30;8.10;;;6.00;99.90;;;;;;4996458;28;20042;-75
2023/12/12 06:54:59;;;;;;;31.52;8.15;;;6.00;99.90;;;;;;4998219;28;20026;-75
2023/12/12 06:57:25;;;;;;;27.52;7.53;;;6.10;99.90;;;;;;4998739;28;20034;-75
2023/12/12 06:59:52;;;;;;;40.88;7.57;;;6.10;99.90;;;;;;4997985;28;20022;-75
2023/12/12 07:02:17;;;;;;;25.75;6.50;;;6.20;99.90;;;;;;4996558;28;20545;-76
2023/12/12 07:04:43;;;;;;;20.55;5.88;;;6.20;99.90;;;;;;4997558;28;20050;-75
2023/12/12 07:07:09;;;;;;;26.73;7.35;;;6.20;99.90;;;;;;4996450;28;20022;-75
2023/12/12 07:09:35;;;;;;;30.77;7.32;;;6.20;99.90;;;;;;5013030;28;20077;-75
2023/12/12 07:12:01;;;;;;;21.45;5.65;;;6.30;99.90;;;;;;4997360;28;20038;-75
2023/12/12 07:14:26;;;;;;;21.75;6.18;;;6.30;99.90;;;;;;4997714;28;20109;-75
2023/12/12 07:16:52;;;;;;;20.02;5.68;;;6.30;99.90;;;;;;4997432;28;20057;-75
2023/12/12 07:19:17;;;;;;;18.40;6.20;;;6.30;99.90;;;;;;4997299;28;20034;-75
2023/12/12 07:21:43;;;;;;;21.58;6.00;;;6.40;99.90;;;;;;4997611;28;20030;-75
2023/12/12 07:24:10;;;;;;;17.25;5.38;;;6.40;99.90;;;;;;4996015;28;20065;-75
2023/12/12 07:26:37;;;;;;;17.27;5.25;;;6.40;99.90;;;;;;4996063;28;20425;-75
2023/12/12 07:29:02;;;;;;;21.52;4.90;;;6.50;99.90;;;;;;4996227;28;20023;-75
2023/12/12 07:31:28;;;;;;;18.58;5.55;;;6.50;99.90;;;;;;5012257;28;20030;-75
2023/12/12 07:33:54;;;;;;;14.27;4.78;;;6.50;99.90;;;;;;4996045;28;20030;-75
2023/12/12 07:36:20;;;;;;;14.13;5.05;;;6.50;99.90;;;;;;4997158;28;20030;-75
2023/12/12 07:38:55;;;;;;;16.75;4.70;;;6.60;99.90;;;;;;4996140;28;20022;-76
2023/12/12 07:41:21;;;;;;;14.38;4.57;;;6.60;99.90;;;;;;4996186;28;20035;-76
2023/12/12 07:43:46;;;;;;;18.70;4.47;;;6.60;99.90;;;;;;4997045;28;20509;-76
2023/12/12 07:46:12;;;;;;;16.20;4.68;;;6.60;99.90;;;;;;4997346;28;20027;-76
2023/12/12 07:48:37;;;;;;;15.82;3.70;;;6.70;99.90;;;;;;5012013;28;20549;-77
2023/12/12 07:51:03;;;;;;;15.15;4.80;;;6.80;99.90;;;;;;4996889;28;20117;-77
2023/12/12 07:53:29;;;;;;;12.98;3.70;;;6.80;99.90;;;;;;4996831;28;20109;-76
2023/12/12 07:55:54;;;;;;;15.90;4.28;;;6.80;99.90;;;;;;5011912;28;20121;-76
2023/12/12 07:58:20;;;;;;;12.98;3.75;;;6.80;99.90;;;;;;4997595;28;20080;-76
2023/12/12 08:00:45;;;;;;;10.48;4.10;;;6.90;99.90;;;;;;5011603;28;20033;-76
2023/12/12 08:03:11;;;;;;;18.95;3.55;;;6.90;99.90;;;;;;4995384;28;20022;-76
2023/12/12 08:05:37;;;;;;;11.55;3.60;;;6.90;99.90;;;;;;4996424;28;20022;-76
2023/12/12 08:08:04;;;;;;;14.52;3.47;;;7.00;99.90;;;;;;4996827;28;20018;-76
2023/12/12 08:10:30;;;;;;;17.85;4.78;;;7.00;99.90;;;;;;4995482;28;20023;-76
2023/12/12 08:12:57;;;;;;;18.85;4.68;;;7.10;99.90;;;;;;4997130;28;20121;-76
2023/12/12 08:15:23;;;;;;;17.67;4.70;;;7.10;99.90;;;;;;4996650;28;20023;-76
2023/12/12 08:17:49;;;;;;;17.45;4.95;;;7.10;99.90;;;;;;4996227;28;20025;-77
2023/12/12 08:20:14;;;;;;;18.17;4.68;;;7.10;99.90;;;;;;4996244;28;20022;-77
2023/12/12 08:22:40;;;;;;;22.88;5.07;;;7.20;99.90;;;;;;4994800;28;20490;-77
2023/12/12 08:25:07;;;;;;;15.98;4.45;;;7.20;99.90;;;;;;5011366;28;20030;-77
2023/12/12 08:27:33;;;;;;;15.90;4.32;;;7.20;99.90;;;;;;4995538;28;20026;-78
2023/12/12 08:30:04;;;;;;;18.45;4.55;;;7.20;99.90;;;;;;4994869;28;20080;-78
2023/12/12 08:32:30;;;;;;;18.60;6.22;;;7.20;99.90;;;;;;4995242;28;20034;-77
2023/12/12 08:34:55;;;;;;;24.08;4.78;;;7.30;99.90;;;;;;4994642;28;20033;-77
2023/12/12 08:37:21;;;;;;;25.98;6.28;;;7.30;99.90;;;;;;4995168;28;20022;-78
2023/12/12 08:39:47;;;;;;;16.77;4.90;;;7.30;99.90;;;;;;4994730;28;20023;-78
2023/12/12 08:42:16;;;;;;;17.27;5.95;;;7.40;99.90;;;;;;4995250;28;20022;-78
2023/12/12 08:44:41;;;;;;;;;;;7.40;99.90;;;;;;4996710;28;20034;-78
2023/12/12 08:47:07;;;;;;;19.70;6.05;;;7.50;99.90;;;;;;4995069;28;20419;-78
2023/12/12 08:49:37;;;;;;;23.45;6.03;;;7.50;99.90;;;;;;4996025;28;20031;-78
2023/12/12 08:52:07;;;;;;;22.70;4.85;;;7.50;99.90;;;;;;4994645;28;20034;-78
2023/12/12 08:54:36;;;;;;;23.63;5.72;;;7.60;99.90;;;;;;4995747;28;20374;-77
2023/12/12 08:57:02;;;;;;;18.33;5.30;;;7.60;99.90;;;;;;4995850;28;20026;-78
2023/12/12 08:59:28;;;;;;;19.10;5.78;;;7.60;99.90;;;;;;4996147;28;20026;-77
2023/12/12 09:01:54;;;;;;;28.13;6.65;;;7.60;99.90;;;;;;4995829;28;20069;-77
2023/12/12 09:04:20;;;;;;;26.17;6.25;;;7.60;99.90;;;;;;4994899;28;20102;-78
2023/12/12 09:06:46;;;;;;;24.35;5.10;;;7.70;99.90;;;;;;4995750;28;20045;-78
2023/12/12 09:09:12;;;;;;;23.48;5.90;;;7.70;99.90;;;;;;4995814;28;20066;-78
2023/12/12 09:11:39;;;;;;;25.13;4.70;;;7.80;99.90;;;;;;4995477;28;20026;-77
2023/12/12 09:14:05;;;;;;;27.48;5.70;;;7.90;99.90;;;;;;4994420;28;20026;-77
2023/12/12 09:16:31;;;;;;;16.73;4.45;;;7.90;99.90;;;;;;4995666;28;20484;-78
2023/12/12 09:18:57;;;;;;;22.67;3.67;;;7.90;99.90;;;;;;4995513;28;20061;-77
2023/12/12 09:21:23;;;;;;;22.35;3.90;;;7.90;99.90;;;;;;4995683;28;20054;-78
2023/12/12 09:23:48;;;;;;;16.15;3.80;;;8.00;99.90;;;;;;4995766;28;20029;-77
2023/12/12 09:26:14;;;;;;;19.25;3.20;;;8.00;99.90;;;;;;4996202;28;20030;-78
2023/12/12 09:28:43;;;;;;;21.50;3.38;;;8.00;99.90;;;;;;4996170;28;20030;-78
2023/12/12 09:31:10;;;;;;;19.05;3.10;;;8.00;99.90;;;;;;4995597;28;20034;-78
2023/12/12 09:33:37;;;;;;;23.20;4.15;;;8.10;99.90;;;;;;4995851;28;20033;-78
2023/12/12 09:36:03;;;;;;;22.60;3.15;;;8.10;99.90;;;;;;4994794;28;20113;-77
2023/12/12 09:38:29;;;;;;;14.57;2.85;;;8.10;99.90;;;;;;4996065;28;20015;-79
2023/12/12 09:40:55;;;;;;;20.98;3.08;;;8.20;99.90;;;;;;4994188;28;20026;-79
2023/12/12 09:43:26;;;;;;;12.60;3.05;;;8.90;99.90;;;;;;4994487;28;20548;-78
2023/12/12 09:45:56;;;;;;;25.30;4.88;;;8.20;99.90;;;;;;4995838;28;20105;-78
2023/12/12 09:48:23;;;;;;;20.33;2.50;;;8.20;99.90;;;;;;4994753;28;20030;-78
2023/12/12 09:50:50;;;;;;;19.05;2.90;;;8.30;99.90;;;;;;4995587;28;20022;-78
2023/12/12 09:53:16;;;;;;;21.00;3.70;;;8.20;99.90;;;;;;4996286;28;20033;-78
2023/12/12 09:55:43;;;;;;;17.83;4.30;;;8.20;99.90;;;;;;4994218;28;20018;-78
2023/12/12 09:58:09;;;;;;;23.17;3.45;;;8.30;99.90;;;;;;4995374;28;20397;-78
2023/12/12 10:00:34;;;;;;;11.45;2.13;;;8.30;99.90;;;;;;5010667;28;20026;-78
2023/12/12 10:03:04;;;;;;;13.82;2.00;;;8.30;99.90;;;;;;4995766;28;20514;-78
2023/12/12 10:05:32;;;;;;;23.15;3.00;;;8.40;99.90;;;;;;4995772;28;20474;-78
2023/12/12 10:08:01;;;;;;;26.00;3.55;;;8.40;99.90;;;;;;4994857;28;20045;-78
2023/12/12 10:10:29;;;;;;;17.75;2.67;;;8.50;99.90;;;;;;4996427;28;20033;-78
2023/12/12 10:12:55;;;;;;;19.17;2.63;;;8.50;99.90;;;;;;4994787;28;20500;-78
2023/12/12 10:15:25;;;;;;;17.40;2.08;;;8.60;99.90;;;;;;4994553;28;20026;-78
2023/12/12 10:17:58;;;;;;;15.43;3.60;;;8.70;99.90;;;;;;4994398;28;20026;-78
2023/12/12 10:20:29;;;;;;;15.80;3.40;;;8.70;99.90;;;;;;4995979;28;20026;-78
2023/12/12 10:22:59;;;;;;;20.90;3.13;;;8.80;99.90;;;;;;4996539;28;20374;-78
2023/12/12 10:25:27;;;;;;;20.58;2.33;;;8.80;99.90;;;;;;4996353;28;20026;-78
2023/12/12 10:27:53;;;;;;;25.58;2.67;;;8.90;99.90;;;;;;4995557;28;20027;-78
2023/12/12 10:30:22;;;;;;;20.92;3.05;;;9.00;99.90;;;;;;4995773;28;20023;-78
2023/12/12 10:32:54;;;;;;;20.40;2.95;;;9.00;99.90;;;;;;4996143;28;20458;-78
2023/12/12 10:35:21;;;;;;;12.23;2.47;;;9.00;99.90;;;;;;4995873;28;20019;-78
2023/12/12 10:37:48;;;;;;;13.50;2.78;;;9.10;99.90;;;;;;4995077;28;20102;-78
2023/12/12 10:40:23;;;;;;;22.10;3.80;;;9.20;99.90;;;;;;4995117;28;20022;-78
2023/12/12 10:42:52;;;;;;;14.15;2.65;;;9.30;99.90;;;;;;4994962;28;20030;-78
2023/12/12 10:45:17;;;;;;;;;;;9.40;99.90;;;;;;4994728;28;20033;-78
2023/12/12 10:47:48;;;;;;;13.57;2.72;;;9.40;99.90;;;;;;4994216;28;19909;-78
2023/12/12 10:50:16;;;;;;;15.75;2.08;;;9.50;99.90;;;;;;4993799;28;20022;-78
2023/12/12 10:52:44;;;;;;;16.65;3.22;;;9.60;99.90;;;;;;4994555;28;20121;-78
2023/12/12 10:55:13;;;;;;;18.60;2.63;;;9.60;99.90;;;;;;4994943;28;20022;-78
2023/12/12 10:57:42;;;;;;;25.90;3.97;;;9.70;99.90;;;;;;4995125;28;20764;-78
2023/12/12 11:00:14;;;;;;;23.30;3.10;;;9.60;99.90;;;;;;4997462;28;20390;-78
2023/12/12 11:02:44;;;;;;;14.43;2.90;;;9.80;99.90;;;;;;4997452;28;20038;-78
2023/12/12 11:05:11;;;;;;;14.07;2.08;;;9.90;99.90;;;;;;4998406;28;20053;-78
2023/12/12 11:07:39;;;;;;;18.77;2.65;;;9.90;99.90;;;;;;4997251;28;20518;-78
2023/12/12 11:10:10;;;;;;;9.20;2.10;;;9.90;99.90;;;;;;4996916;28;20482;-79
2023/12/12 11:12:58;;;;;;;18.27;2.70;;;10.00;99.90;;;;;;4997649;28;20060;-78
2023/12/12 11:15:25;;;;;;;19.92;2.65;;;10.00;99.90;;;;;;4998382;28;20022;-78
2023/12/12 11:17:52;;;;;;;14.30;2.35;;;10.00;99.90;;;;;;4997995;28;20022;-78
2023/12/12 11:20:18;;;;;;;17.85;3.03;;;10.00;99.90;;;;;;4997340;28;20036;-78
2023/12/12 11:23:05;;;;;;;14.75;3.05;;;10.00;99.90;;;;;;4997997;28;20018;-78
2023/12/12 11:25:31;;;;;;;16.02;2.67;;;10.00;99.90;;;;;;4998005;28;20446;-78
2023/12/12 11:28:01;;;;;;;14.98;3.58;;;9.90;99.90;;;;;;4996925;28;20027;-79
2023/12/12 11:30:38;;;;;;;13.27;2.33;;;9.90;99.90;;;;;;4997022;28;20023;-77
2023/12/12 11:33:06;;;;;;;19.63;2.40;;;9.90;99.90;;;;;;4996816;28;20018;-77
2023/12/12 11:35:32;;;;;;;16.33;2.00;;;10.00;99.90;;;;;;4996687;28;20049;-78
2023/12/12 11:38:02;;;;;;;14.88;2.03;;;10.00;99.90;;;;;;4996543;28;20031;-78
2023/12/12 11:40:27;;;;;;;14.10;2.75;;;10.10;99.90;;;;;;4996735;28;20429;-78
2023/12/12 11:42:56;;;;;;;11.77;2.78;;;10.20;99.90;;;;;;4996967;28;20033;-78
2023/12/12 11:45:34;;;;;;;13.40;3.38;;;10.30;99.90;;;;;;4997042;28;20033;-77
2023/12/12 11:48:05;;;;;;;11.80;2.90;;;10.80;99.90;;;;;;4997358;28;20026;-78
2023/12/12 11:50:32;;;;;;;13.43;2.72;;;10.50;99.90;;;;;;4997926;28;20645;-78
2023/12/12 11:52:58;;;;;;;14.35;2.63;;;10.60;99.90;;;;;;4995995;28;20395;-78
2023/12/12 11:55:29;;;;;;;13.25;2.05;;;10.70;99.90;;;;;;4995840;28;20385;-78
2023/12/12 11:58:06;;;;;;;16.95;1.83;;;10.70;99.90;;;;;;4997149;28;20494;-78
2023/12/12 12:00:33;;;;;;;11.55;2.47;;;10.70;99.90;;;;;;4995513;28;20504;-77
2023/12/12 12:03:00;;;;;;;15.10;2.85;;;10.70;99.90;;;;;;4997192;28;20036;-78
2023/12/12 12:05:26;;;;;;;12.45;2.05;;;10.80;99.90;;;;;;4996091;28;20445;-78
2023/12/12 12:07:52;;;;;;;16.13;1.85;;;10.90;99.90;;;;;;4995574;28;20057;-79
2023/12/12 12:10:18;;;;;;;24.02;3.55;;;10.90;99.90;;;;;;4995346;28;20026;-78
2023/12/12 12:12:57;;;;;;;10.75;2.30;;;10.90;99.90;;;;;;4996591;28;20060;-78
2023/12/12 12:15:23;;;;;;;16.52;2.60;;;10.90;99.90;;;;;;4996788;28;20026;-78
2023/12/12 12:17:49;;;;;;;10.38;3.35;;;10.90;99.90;;;;;;4995100;28;20443;-78
2023/12/12 12:20:14;;;;;;;11.43;2.90;;;10.90;99.90;;;;;;4996242;28;20071;-76
2023/12/12 12:22:40;;;;;;;13.15;2.05;;;10.90;99.90;;;;;;4996548;28;20041;-77
2023/12/12 12:25:07;;;;;;;7.85;2.63;;;10.90;99.90;;;;;;4995597;28;20022;-77
2023/12/12 12:27:53;;;;;;;14.73;2.33;;;10.80;99.90;;;;;;4995445;28;20033;-78
2023/12/12 12:30:20;;;;;;;7.15;1.27;;;10.80;99.90;;;;;;4996638;28;20110;-78
2023/12/12 12:33:02;;;;;;;19.40;4.18;;;10.80;99.90;;;;;;4994648;28;20038;-78
2023/12/12 12:35:28;;;;;;;10.68;1.70;;;10.80;99.90;;;;;;4996770;28;20109;-78
2023/12/12 12:37:54;;;;;;;12.15;1.65;;;10.90;99.90;;;;;;4994738;28;20493;-78
2023/12/12 12:40:37;;;;;;;14.02;2.85;;;10.90;99.90;;;;;;4995903;28;20072;-78
2023/12/12 12:43:13;;;;;;;10.57;1.65;;;10.90;99.90;;;;;;4995722;28;20114;-78
2023/12/12 12:45:38;;;;;;;10.60;1.40;;;11.00;99.90;;;;;;4995781;28;20018;-78
2023/12/12 12:48:05;;;;;;;14.70;2.13;;;10.90;99.90;;;;;;4995885;28;20033;-77